Terminal Aerodrome Forecast
Issued by NWS

Home | Current Version | Previous Version | Graphics & Text | Print | Product List | Glossary On
Versions: 1 2 3 4 5 6 7 8 9 10 11 12 13 14
000
FTUS43 KICT 181726
TAFRSL
TAF
KRSL 181726Z 1818/1918 17010KT P6SM SCT050 BKN120
     FM182100 17012KT P6SM VCTS SCT035CB BKN050
      TEMPO 1821/1824 4SM TSRA BR BKN035CB
     FM190600 17006KT P6SM OVC100
     FM191200 29008KT P6SM VCSH SCT020 OVC060=

USA.gov is the U.S. government's official web portal to all federal, state and local government web resources and services.